createdAt,value
2022-10-17T00:00:36.523Z,14.60
2022-10-17T00:03:03.530Z,14.60
2022-10-17T00:05:30.468Z,14.60
2022-10-17T00:07:57.308Z,14.60
2022-10-17T00:10:24.432Z,14.60
2022-10-17T00:12:52.130Z,14.50
2022-10-17T00:15:21.126Z,14.40
2022-10-17T00:17:48.014Z,14.40
2022-10-17T00:20:15.707Z,14.40
2022-10-17T00:22:42.614Z,14.30
2022-10-17T00:25:09.711Z,14.30
2022-10-17T00:27:38.744Z,14.30
2022-10-17T00:30:07.839Z,14.30
2022-10-17T00:32:34.688Z,14.30
2022-10-17T00:35:01.582Z,14.20
2022-10-17T00:37:29.840Z,14.30
2022-10-17T00:39:56.646Z,14.30
2022-10-17T00:42:25.215Z,14.20
2022-10-17T00:45:03.184Z,14.20
2022-10-17T00:47:30.864Z,14.10
2022-10-17T00:49:58.647Z,14.10
2022-10-17T00:52:28.998Z,14.10
2022-10-17T00:55:03.730Z,14.10
2022-10-17T00:57:32.406Z,14.00
2022-10-17T01:00:03.179Z,14.00
2022-10-17T01:02:30.107Z,14.00
2022-10-17T01:04:59.565Z,13.90
2022-10-17T01:07:32.026Z,13.90
2022-10-17T01:10:02.100Z,13.90
2022-10-17T01:12:52.996Z,13.90
2022-10-17T01:15:39.133Z,13.90
2022-10-17T01:18:17.556Z,13.90
2022-10-17T01:21:02.090Z,13.90
2022-10-17T01:24:26.047Z,13.90
2022-10-17T01:27:07.236Z,13.80
2022-10-17T01:30:03.154Z,13.90
2022-10-17T01:32:37.189Z,13.90
2022-10-17T01:35:37.973Z,13.90
2022-10-17T01:38:26.844Z,13.80
2022-10-17T01:41:02.442Z,13.80
2022-10-17T01:43:39.286Z,13.70
2022-10-17T01:46:18.352Z,13.70
2022-10-17T01:48:46.618Z,13.70
2022-10-17T01:51:23.288Z,13.70
2022-10-17T01:54:39.304Z,13.70
2022-10-17T01:57:11.560Z,13.60
2022-10-17T01:59:43.185Z,13.60
2022-10-17T02:02:11.644Z,13.60
2022-10-17T02:04:38.557Z,13.50
2022-10-17T02:07:10.725Z,13.40
2022-10-17T02:09:38.086Z,13.30
2022-10-17T02:12:23.044Z,13.30
2022-10-17T02:15:26.762Z,13.20
2022-10-17T02:18:38.733Z,13.20
2022-10-17T02:21:39.687Z,13.20
2022-10-17T02:24:09.837Z,13.20
2022-10-17T02:26:58.306Z,13.20
2022-10-17T02:29:31.637Z,13.20
2022-10-17T02:32:10.009Z,13.20
2022-10-17T02:34:50.755Z,13.30
2022-10-17T02:37:21.953Z,13.20
2022-10-17T02:39:50.765Z,13.20
2022-10-17T02:42:18.806Z,13.10
2022-10-17T02:44:47.018Z,13.10
2022-10-17T02:47:18.983Z,13.10
2022-10-17T02:49:51.645Z,13.10
2022-10-17T02:52:29.305Z,13.10
2022-10-17T02:55:21.086Z,13.10
2022-10-17T02:57:49.820Z,13.10
2022-10-17T03:00:18.787Z,13.10
2022-10-17T03:02:53.109Z,13.10
2022-10-17T03:05:23.330Z,13.20
2022-10-17T03:07:50.629Z,13.20
2022-10-17T03:10:18.040Z,13.10
2022-10-17T03:12:44.890Z,13.10
2022-10-17T03:15:12.565Z,13.20
2022-10-17T03:17:39.573Z,13.10
2022-10-17T03:20:07.524Z,13.10
2022-10-17T03:22:34.714Z,13.10
2022-10-17T03:25:01.704Z,13.10
2022-10-17T03:27:28.756Z,13.10
2022-10-17T03:29:55.846Z,13.10
2022-10-17T03:32:22.698Z,13.10
2022-10-17T03:34:49.508Z,12.90
2022-10-17T03:37:16.326Z,13.00
2022-10-17T03:39:43.148Z,13.00
2022-10-17T03:42:10.015Z,13.00
2022-10-17T03:44:36.838Z,12.90
2022-10-17T03:47:03.663Z,13.00
2022-10-17T03:49:30.439Z,13.00
2022-10-17T03:51:57.333Z,13.00
2022-10-17T03:54:24.506Z,13.00
2022-10-17T03:56:51.481Z,12.90
2022-10-17T03:59:18.563Z,12.90
2022-10-17T04:01:45.402Z,12.80
2022-10-17T04:04:12.237Z,12.80
2022-10-17T04:06:39.161Z,12.80
2022-10-17T04:09:07.397Z,12.80
2022-10-17T04:11:34.614Z,12.70
2022-10-17T04:14:01.511Z,12.70
2022-10-17T04:16:28.564Z,12.70
2022-10-17T04:18:57.020Z,12.60
2022-10-17T04:21:25.831Z,12.60
2022-10-17T04:23:56.811Z,12.60
2022-10-17T04:26:23.983Z,12.50
2022-10-17T04:28:51.509Z,12.50
2022-10-17T04:31:18.919Z,12.50
2022-10-17T04:33:49.981Z,12.60
2022-10-17T04:36:19.754Z,12.60
2022-10-17T04:38:46.794Z,12.50
2022-10-17T04:41:16.625Z,12.50
2022-10-17T04:43:46.913Z,12.50
2022-10-17T04:46:17.085Z,12.50
2022-10-17T04:48:43.966Z,12.40
2022-10-17T04:51:16.255Z,12.40
2022-10-17T04:53:44.066Z,12.40
2022-10-17T04:56:19.385Z,12.40
2022-10-17T04:58:47.538Z,12.40
2022-10-17T05:01:21.169Z,12.40
2022-10-17T05:03:48.438Z,12.30
2022-10-17T05:06:18.017Z,12.30
2022-10-17T05:08:45.360Z,12.30
2022-10-17T05:11:23.993Z,12.30
2022-10-17T05:13:56.589Z,12.20
2022-10-17T05:16:24.479Z,12.20
2022-10-17T05:18:53.430Z,12.20
2022-10-17T05:21:21.851Z,12.20
2022-10-17T05:23:48.782Z,12.30
2022-10-17T05:26:15.664Z,12.20
2022-10-17T05:28:42.566Z,12.30
2022-10-17T05:31:11.170Z,12.20
2022-10-17T05:33:39.133Z,12.30
2022-10-17T05:36:07.272Z,12.20
2022-10-17T05:38:34.649Z,12.30
2022-10-17T05:41:03.445Z,12.30
2022-10-17T05:43:30.484Z,12.30
2022-10-17T05:45:57.573Z,12.30
2022-10-17T05:48:24.553Z,12.30
2022-10-17T05:50:59.247Z,12.30
2022-10-17T05:53:26.145Z,12.30
2022-10-17T05:56:00.538Z,12.30
2022-10-17T06:01:15.050Z,12.30
2022-10-17T06:03:41.872Z,12.20
2022-10-17T06:06:12.652Z,12.30
2022-10-17T06:08:40.064Z,12.30
2022-10-17T06:11:09.946Z,12.30
2022-10-17T06:13:38.291Z,12.30
2022-10-17T06:16:05.368Z,12.30
2022-10-17T06:18:32.482Z,12.30
2022-10-17T06:21:08.026Z,12.20
2022-10-17T06:23:35.412Z,12.20
2022-10-17T06:26:04.237Z,12.20
2022-10-17T06:28:31.536Z,12.20
2022-10-17T06:30:58.455Z,12.20
2022-10-17T06:33:25.602Z,12.30
2022-10-17T06:35:56.514Z,12.30
2022-10-17T06:38:23.683Z,12.30
2022-10-17T06:40:50.652Z,12.20
2022-10-17T06:43:17.505Z,12.30
2022-10-17T06:45:47.466Z,12.30
2022-10-17T06:48:14.898Z,12.30
2022-10-17T06:50:41.720Z,12.30
2022-10-17T06:53:08.541Z,12.30
2022-10-17T06:55:35.325Z,12.30
2022-10-17T06:58:02.137Z,12.40
2022-10-17T07:00:29.004Z,12.40
2022-10-17T07:02:55.830Z,12.40
2022-10-17T07:05:23.161Z,12.40
2022-10-17T07:07:51.066Z,12.50
2022-10-17T07:10:18.850Z,12.50
2022-10-17T07:12:45.974Z,12.60
2022-10-17T07:15:13.185Z,12.50
2022-10-17T07:17:40.076Z,12.60
2022-10-17T07:20:07.443Z,12.60
2022-10-17T07:22:34.281Z,12.70
2022-10-17T07:25:01.125Z,12.70
2022-10-17T07:27:28.142Z,12.80
2022-10-17T07:29:55.240Z,12.80
2022-10-17T07:32:22.033Z,12.90
2022-10-17T07:34:48.817Z,13.00
2022-10-17T07:37:15.671Z,13.10
2022-10-17T07:39:42.450Z,13.20
2022-10-17T07:42:10.151Z,13.30
2022-10-17T07:44:36.979Z,13.40
2022-10-17T07:47:04.376Z,13.50
2022-10-17T07:49:31.402Z,13.50
2022-10-17T07:51:58.294Z,13.60
2022-10-17T07:54:25.321Z,13.70
2022-10-17T07:56:52.166Z,13.80
2022-10-17T07:59:19.284Z,13.90
2022-10-17T08:01:46.174Z,13.90
2022-10-17T08:04:13.144Z,14.00
2022-10-17T08:06:39.944Z,14.10
2022-10-17T08:09:06.782Z,14.20
2022-10-17T08:11:33.801Z,14.30
2022-10-17T08:14:00.572Z,14.30
2022-10-17T08:16:27.516Z,14.40
2022-10-17T08:18:54.327Z,14.50
2022-10-17T08:21:21.283Z,14.70
2022-10-17T08:23:48.129Z,14.90
2022-10-17T08:26:17.302Z,15.10
2022-10-17T08:28:44.392Z,15.40
2022-10-17T08:31:14.648Z,15.70
2022-10-17T08:33:42.499Z,16.00
2022-10-17T08:36:15.063Z,16.40
2022-10-17T08:38:43.647Z,16.90
2022-10-17T08:41:19.555Z,18.00
2022-10-17T08:43:52.031Z,19.80
2022-10-17T08:46:20.187Z,21.90
2022-10-17T08:48:49.510Z,24.10
2022-10-17T08:51:21.151Z,26.10
2022-10-17T08:54:02.355Z,27.80
2022-10-17T08:56:49.309Z,29.50
2022-10-17T08:59:28.423Z,31.10
2022-10-17T09:02:00.919Z,32.10
2022-10-17T09:04:59.032Z,32.60
2022-10-17T09:07:48.332Z,33.20
2022-10-17T09:10:26.512Z,33.70
2022-10-17T09:13:06.882Z,34.30
2022-10-17T09:16:01.384Z,35.20
2022-10-17T09:18:33.953Z,36.30
2022-10-17T09:21:09.568Z,36.60
2022-10-17T09:24:09.357Z,35.80
2022-10-17T09:26:40.928Z,34.90
2022-10-17T09:29:18.039Z,34.30
2022-10-17T09:31:51.407Z,33.10
2022-10-17T09:34:18.426Z,32.80
2022-10-17T09:36:45.323Z,33.20
2022-10-17T09:39:19.839Z,33.60
2022-10-17T09:41:59.054Z,33.90
2022-10-17T09:44:31.713Z,34.30
2022-10-17T09:47:25.574Z,34.70
2022-10-17T09:49:52.472Z,34.70
2022-10-17T09:52:34.267Z,35.20
2022-10-17T09:55:04.214Z,35.70
2022-10-17T09:57:55.271Z,35.90
2022-10-17T10:00:30.918Z,36.50
2022-10-17T10:03:16.742Z,37.30
2022-10-17T10:06:05.036Z,37.00
2022-10-17T10:08:37.124Z,36.40
2022-10-17T10:11:13.425Z,35.20
2022-10-17T10:13:40.868Z,34.60
2022-10-17T10:16:32.371Z,33.80
2022-10-17T10:18:59.302Z,32.70
2022-10-17T10:21:27.611Z,32.30
2022-10-17T10:24:09.547Z,31.80
2022-10-17T10:26:40.460Z,32.30
2022-10-17T10:29:20.081Z,32.90
2022-10-17T10:31:47.931Z,33.30
2022-10-17T10:34:26.007Z,33.50
2022-10-17T10:36:59.075Z,33.90
2022-10-17T10:39:55.243Z,34.20
2022-10-17T10:42:35.673Z,34.00
2022-10-17T10:45:47.009Z,34.50
2022-10-17T10:48:24.260Z,34.50
2022-10-17T10:51:16.497Z,35.10
2022-10-17T10:53:43.259Z,34.60
2022-10-17T10:56:21.914Z,34.20
2022-10-17T10:58:57.369Z,33.90
2022-10-17T11:01:37.934Z,33.60
2022-10-17T11:04:08.634Z,33.70
2022-10-17T11:06:40.107Z,33.30
2022-10-17T11:09:40.244Z,32.90
2022-10-17T11:12:14.822Z,32.90
2022-10-17T11:14:47.459Z,33.10
2022-10-17T11:17:46.589Z,33.30
2022-10-17T11:20:19.783Z,33.70
2022-10-17T11:22:55.719Z,34.00
2022-10-17T11:25:22.545Z,34.40
2022-10-17T11:27:49.468Z,34.80
2022-10-17T11:30:16.902Z,34.70
2022-10-17T11:32:52.521Z,35.10
2022-10-17T11:35:38.065Z,35.50
2022-10-17T11:38:20.103Z,36.30
2022-10-17T11:40:50.771Z,36.70
2022-10-17T11:43:31.566Z,37.20
2022-10-17T11:46:13.630Z,37.80
2022-10-17T11:48:46.252Z,38.10
2022-10-17T11:54:35.197Z,38.20
2022-10-17T11:57:09.155Z,38.00
2022-10-17T11:59:56.978Z,38.20
2022-10-17T12:02:53.393Z,38.00
2022-10-17T12:05:46.557Z,37.70
2022-10-17T12:08:39.361Z,36.90
2022-10-17T12:11:39.304Z,36.20
2022-10-17T12:14:41.253Z,35.70
2022-10-17T12:17:39.099Z,35.00
2022-10-17T12:20:21.668Z,34.00
2022-10-17T12:22:53.247Z,33.30
2022-10-17T12:25:30.232Z,32.90
2022-10-17T12:28:15.834Z,32.70
2022-10-17T12:30:53.784Z,32.40
2022-10-17T12:33:37.142Z,32.00
2022-10-17T12:36:18.773Z,32.00
2022-10-17T12:38:50.030Z,32.00
2022-10-17T12:41:37.835Z,31.60
2022-10-17T12:44:13.783Z,31.40
2022-10-17T12:47:09.750Z,31.10
2022-10-17T12:49:46.673Z,30.30
2022-10-17T12:52:31.629Z,30.10
2022-10-17T12:55:14.214Z,30.20
2022-10-17T12:58:08.238Z,30.10
2022-10-17T13:00:49.806Z,30.40
2022-10-17T13:03:28.392Z,30.20
2022-10-17T13:05:59.468Z,30.00
2022-10-17T13:08:30.467Z,29.90
2022-10-17T13:10:58.061Z,30.00
2022-10-17T13:13:45.393Z,30.10
2022-10-17T13:16:51.093Z,30.10
2022-10-17T13:19:20.247Z,29.70
2022-10-17T13:22:05.968Z,29.40
2022-10-17T13:24:37.187Z,29.50
2022-10-17T13:27:05.926Z,29.60
2022-10-17T13:29:33.654Z,29.50
2022-10-17T13:32:03.974Z,29.60
2022-10-17T13:34:32.702Z,29.60
2022-10-17T13:37:06.031Z,29.70
2022-10-17T13:40:00.440Z,29.80
2022-10-17T13:42:38.340Z,29.90
2022-10-17T13:45:16.193Z,30.00
2022-10-17T13:47:43.325Z,29.70
2022-10-17T13:50:43.079Z,29.50
2022-10-17T13:53:18.131Z,29.50
2022-10-17T13:56:27.305Z,29.20
2022-10-17T13:59:00.163Z,29.00
2022-10-17T14:01:29.281Z,28.70
2022-10-17T14:04:08.263Z,28.60
2022-10-17T14:06:47.665Z,28.40
2022-10-17T14:09:29.474Z,28.40
2022-10-17T14:12:03.210Z,28.30
2022-10-17T14:14:41.675Z,28.10
2022-10-17T14:17:26.026Z,27.90
2022-10-17T14:22:50.659Z,27.70
2022-10-17T14:25:40.218Z,27.50
2022-10-17T14:28:14.139Z,27.30
2022-10-17T14:30:56.133Z,27.30
2022-10-17T14:33:28.486Z,27.50
2022-10-17T14:35:57.689Z,27.40
2022-10-17T14:38:25.669Z,27.30
2022-10-17T14:41:09.564Z,27.10
2022-10-17T14:43:43.624Z,27.10
2022-10-17T14:46:16.866Z,27.20
2022-10-17T14:48:44.029Z,27.20
2022-10-17T14:51:16.363Z,27.10
2022-10-17T14:54:05.198Z,26.90
2022-10-17T14:56:39.660Z,26.90
2022-10-17T14:59:11.134Z,26.90
2022-10-17T15:01:38.806Z,26.80
2022-10-17T15:04:05.709Z,26.80
2022-10-17T15:06:34.725Z,26.60
2022-10-17T15:09:01.902Z,26.50
2022-10-17T15:11:29.082Z,26.50
2022-10-17T15:13:55.979Z,26.40
2022-10-17T15:16:26.126Z,26.40
2022-10-17T15:18:53.934Z,26.30
2022-10-17T15:21:37.601Z,26.20
2022-10-17T15:24:07.521Z,26.00
2022-10-17T15:26:34.912Z,25.80
2022-10-17T15:29:02.058Z,25.70
2022-10-17T15:31:31.382Z,25.60
2022-10-17T15:33:58.163Z,25.40
2022-10-17T15:36:30.481Z,25.40
2022-10-17T15:39:00.049Z,25.20
2022-10-17T15:41:29.396Z,25.20
2022-10-17T15:43:56.945Z,25.10
2022-10-17T15:46:29.190Z,25.10
2022-10-17T15:48:57.213Z,25.00
2022-10-17T15:51:24.296Z,25.00
2022-10-17T15:53:51.143Z,24.90
2022-10-17T15:56:28.676Z,24.90
2022-10-17T15:58:55.864Z,24.80
2022-10-17T16:01:26.322Z,24.80
2022-10-17T16:03:53.396Z,24.70
2022-10-17T16:06:21.047Z,24.60
2022-10-17T16:08:48.392Z,24.40
2022-10-17T16:11:20.648Z,24.30
2022-10-17T16:13:51.868Z,24.10
2022-10-17T16:16:19.037Z,23.90
2022-10-17T16:18:45.906Z,23.80
2022-10-17T16:21:15.184Z,23.70
2022-10-17T16:23:42.518Z,23.60
2022-10-17T16:26:09.945Z,23.50
2022-10-17T16:28:36.798Z,23.30
2022-10-17T16:31:03.605Z,23.20
2022-10-17T16:33:31.451Z,23.00
2022-10-17T16:35:58.326Z,22.90
2022-10-17T16:38:25.199Z,22.80
2022-10-17T16:40:51.986Z,22.70
2022-10-17T16:43:18.902Z,22.60
2022-10-17T16:45:45.711Z,22.50
2022-10-17T16:48:13.021Z,22.50
2022-10-17T16:50:40.534Z,22.50
2022-10-17T16:53:07.533Z,22.40
2022-10-17T16:55:34.392Z,22.30
2022-10-17T16:58:01.563Z,22.30
2022-10-17T17:00:28.642Z,22.30
2022-10-17T17:03:36.919Z,22.20
2022-10-17T17:06:05.276Z,22.10
2022-10-17T17:08:33.098Z,22.00
2022-10-17T17:11:00.332Z,22.00
2022-10-17T17:13:28.268Z,21.90
2022-10-17T17:16:06.363Z,21.90
2022-10-17T17:18:33.948Z,21.80
2022-10-17T17:21:02.447Z,21.80
2022-10-17T17:23:30.212Z,21.70
2022-10-17T17:26:02.541Z,21.70
2022-10-17T17:28:29.747Z,21.60
2022-10-17T17:30:56.657Z,21.60
2022-10-17T17:33:24.636Z,21.50
2022-10-17T17:35:56.632Z,21.50
2022-10-17T17:38:23.853Z,21.40
2022-10-17T17:40:51.310Z,21.40
2022-10-17T17:43:18.968Z,21.40
2022-10-17T17:45:46.266Z,21.30
2022-10-17T17:48:13.628Z,21.30
2022-10-17T17:50:41.672Z,21.20
2022-10-17T17:53:16.827Z,21.20
2022-10-17T17:55:44.069Z,21.10
2022-10-17T17:58:12.353Z,21.10
2022-10-17T18:00:40.728Z,21.10
2022-10-17T18:03:08.057Z,21.00
2022-10-17T18:05:34.876Z,21.00
2022-10-17T18:08:01.730Z,21.00
2022-10-17T18:10:29.425Z,20.90
2022-10-17T18:12:56.276Z,20.90
2022-10-17T18:15:23.340Z,20.80
2022-10-17T18:17:50.240Z,20.80
2022-10-17T18:20:17.167Z,20.80
2022-10-17T18:22:44.039Z,20.80
2022-10-17T18:25:10.922Z,20.80
2022-10-17T18:27:37.910Z,20.70
2022-10-17T18:30:05.443Z,20.70
2022-10-17T18:32:33.053Z,20.70
2022-10-17T18:35:00.141Z,20.60
2022-10-17T18:37:27.006Z,20.60
2022-10-17T18:39:55.907Z,20.50
2022-10-17T18:42:22.716Z,20.50
2022-10-17T18:44:49.955Z,20.50
2022-10-17T18:47:16.938Z,20.40
2022-10-17T18:49:43.807Z,20.40
2022-10-17T18:52:10.716Z,20.40
2022-10-17T18:54:37.598Z,20.30
2022-10-17T18:57:04.556Z,20.20
2022-10-17T18:59:31.456Z,20.10
2022-10-17T19:01:58.702Z,20.10
2022-10-17T19:04:25.932Z,20.00
2022-10-17T19:06:52.757Z,19.90
2022-10-17T19:09:19.596Z,19.70
2022-10-17T19:11:46.790Z,19.60
2022-10-17T19:14:14.040Z,19.50
2022-10-17T19:16:48.447Z,19.40
2022-10-17T19:19:22.498Z,19.40
2022-10-17T19:21:50.033Z,19.30
2022-10-17T19:24:22.779Z,19.30
2022-10-17T19:26:50.926Z,19.30
2022-10-17T19:29:18.715Z,19.30
2022-10-17T19:31:47.371Z,19.30
2022-10-17T19:34:15.290Z,19.40
2022-10-17T19:36:42.980Z,19.30
2022-10-17T19:39:19.085Z,19.30
2022-10-17T19:41:47.610Z,19.30
2022-10-17T19:44:15.322Z,19.20
2022-10-17T19:46:46.736Z,19.30
2022-10-17T19:49:13.687Z,19.20
2022-10-17T19:51:40.872Z,19.30
2022-10-17T19:54:07.752Z,19.30
2022-10-17T19:56:38.334Z,19.30
2022-10-17T19:59:06.753Z,19.20
2022-10-17T20:01:38.867Z,19.20
2022-10-17T20:04:07.584Z,19.10
2022-10-17T20:06:34.908Z,19.00
2022-10-17T20:09:01.735Z,19.00
2022-10-17T20:11:29.689Z,18.90
2022-10-17T20:13:57.141Z,19.00
2022-10-17T20:16:26.829Z,18.90
2022-10-17T20:18:57.139Z,18.80
2022-10-17T20:21:31.549Z,18.80
2022-10-17T20:24:00.059Z,18.70
2022-10-17T20:26:42.870Z,18.60
2022-10-17T20:29:15.672Z,18.50
2022-10-17T20:31:44.299Z,18.40
2022-10-17T20:34:16.022Z,18.40
2022-10-17T20:36:43.564Z,18.30
2022-10-17T20:39:12.811Z,18.20
2022-10-17T20:41:39.871Z,18.20
2022-10-17T20:44:07.470Z,18.20
2022-10-17T20:46:37.625Z,18.10
2022-10-17T20:49:07.270Z,18.00
2022-10-17T20:51:35.017Z,17.90
2022-10-17T20:54:02.805Z,17.80
2022-10-17T20:56:31.772Z,17.80
2022-10-17T20:59:01.229Z,17.80
2022-10-17T21:01:29.380Z,17.80
2022-10-17T21:03:59.625Z,17.80
2022-10-17T21:06:29.505Z,17.80
2022-10-17T21:08:57.617Z,17.80
2022-10-17T21:11:27.632Z,17.80
2022-10-17T21:13:56.869Z,17.80
2022-10-17T21:16:24.373Z,17.70
2022-10-17T21:18:51.248Z,17.70
2022-10-17T21:21:25.019Z,17.60
2022-10-17T21:23:52.684Z,17.60
2022-10-17T21:26:19.799Z,17.50
2022-10-17T21:28:47.958Z,17.50
2022-10-17T21:31:18.804Z,17.40
2022-10-17T21:34:00.178Z,17.30
2022-10-17T21:36:28.272Z,17.20
2022-10-17T21:38:56.401Z,17.10
2022-10-17T21:41:25.894Z,17.10
2022-10-17T21:43:54.620Z,17.00
2022-10-17T21:46:21.896Z,17.00
2022-10-17T21:48:49.307Z,17.00
2022-10-17T21:51:18.126Z,16.90
2022-10-17T21:53:45.037Z,16.90
2022-10-17T21:56:14.644Z,16.90
2022-10-17T21:58:42.107Z,16.80
2022-10-17T22:01:10.134Z,16.80
2022-10-17T22:03:45.862Z,16.80
2022-10-17T22:06:38.557Z,16.80
2022-10-17T22:09:04.326Z,16.80
2022-10-17T22:11:33.059Z,16.80
2022-10-17T22:14:32.602Z,16.80
2022-10-17T22:16:59.586Z,16.80
2022-10-17T22:19:27.200Z,16.80
2022-10-17T22:21:55.087Z,16.80
2022-10-17T22:24:23.316Z,16.80
2022-10-17T22:26:50.867Z,16.80
2022-10-17T22:29:17.815Z,16.80
2022-10-17T22:31:45.058Z,16.80
2022-10-17T22:34:14.171Z,16.70
2022-10-17T22:36:41.507Z,16.70
2022-10-17T22:39:09.125Z,16.70
2022-10-17T22:41:40.039Z,16.70
2022-10-17T22:44:07.268Z,16.70
2022-10-17T22:46:34.251Z,16.60
2022-10-17T22:49:01.102Z,16.60
2022-10-17T22:51:27.961Z,16.60
2022-10-17T22:53:54.828Z,16.60
2022-10-17T22:56:22.881Z,16.50
2022-10-17T22:58:50.262Z,16.60
2022-10-17T23:01:20.893Z,16.60
2022-10-17T23:03:48.359Z,16.60
2022-10-17T23:06:15.433Z,16.50
2022-10-17T23:08:42.618Z,16.50
2022-10-17T23:11:10.388Z,16.40
2022-10-17T23:13:37.775Z,16.40
2022-10-17T23:16:05.190Z,16.40
2022-10-17T23:18:32.066Z,16.30
2022-10-17T23:20:59.075Z,16.30
2022-10-17T23:23:25.950Z,16.20
2022-10-17T23:25:52.822Z,16.20
2022-10-17T23:28:19.671Z,16.20
2022-10-17T23:30:46.595Z,16.10
2022-10-17T23:33:14.191Z,16.10
2022-10-17T23:35:41.299Z,16.10
2022-10-17T23:38:08.293Z,16.00
2022-10-17T23:40:35.571Z,15.90
2022-10-17T23:43:03.417Z,15.90
2022-10-17T23:45:34.666Z,15.90
2022-10-17T23:48:04.959Z,15.90
2022-10-17T23:50:31.753Z,15.80
2022-10-17T23:52:58.566Z,15.80
2022-10-17T23:55:25.356Z,15.80
2022-10-17T23:57:52.175Z,15.80
